createdAt,value
2022-12-14T00:00:15.666Z,15.48
2022-12-14T00:01:15.684Z,15.51
2022-12-14T00:02:15.761Z,15.49
2022-12-14T00:03:15.973Z,15.52
2022-12-14T00:04:16.059Z,15.53
2022-12-14T00:05:15.790Z,15.52
2022-12-14T00:06:15.912Z,15.52
2022-12-14T00:07:15.831Z,15.52
2022-12-14T00:08:15.853Z,15.48
2022-12-14T00:09:15.885Z,15.51
2022-12-14T00:10:15.906Z,15.52
2022-12-14T00:11:16.232Z,15.51
2022-12-14T00:12:16.522Z,15.49
2022-12-14T00:13:15.990Z,15.43
2022-12-14T00:14:16.004Z,15.48
2022-12-14T00:15:16.020Z,15.44
2022-12-14T00:16:16.552Z,15.46
2022-12-14T00:17:16.089Z,15.46
2022-12-14T00:18:20.840Z,15.46
2022-12-14T00:19:16.138Z,15.44
2022-12-14T00:20:16.143Z,15.46
2022-12-14T00:21:16.164Z,15.48
2022-12-14T00:22:16.185Z,15.37
2022-12-14T00:23:16.316Z,15.40
2022-12-14T00:24:16.241Z,15.40
2022-12-14T00:25:16.561Z,15.41
2022-12-14T00:26:16.284Z,15.35
2022-12-14T00:27:16.310Z,15.41
2022-12-14T00:28:16.332Z,15.37
2022-12-14T00:29:16.363Z,15.37
2022-12-14T00:30:16.438Z,15.34
2022-12-14T00:31:16.439Z,15.38
2022-12-14T00:32:16.677Z,15.33
2022-12-14T00:33:16.478Z,15.41
2022-12-14T00:34:16.478Z,15.34
2022-12-14T00:35:16.528Z,15.35
2022-12-14T00:36:16.533Z,15.35
2022-12-14T00:37:16.547Z,15.34
2022-12-14T00:38:16.570Z,15.25
2022-12-14T00:39:16.995Z,15.37
2022-12-14T00:40:16.628Z,15.33
2022-12-14T00:41:16.639Z,15.28
2022-12-14T00:42:16.668Z,15.27
2022-12-14T00:43:16.790Z,15.33
2022-12-14T00:44:16.738Z,15.37
2022-12-14T00:45:16.740Z,15.34
2022-12-14T00:46:17.161Z,15.33
2022-12-14T00:48:16.809Z,15.35
2022-12-14T00:49:16.832Z,15.33
2022-12-14T00:50:16.864Z,15.31
2022-12-14T00:51:16.905Z,15.35
2022-12-14T00:52:16.903Z,15.28
2022-12-14T00:53:17.227Z,15.25
2022-12-14T00:54:16.953Z,15.23
2022-12-14T00:55:16.978Z,15.25
2022-12-14T00:56:16.999Z,15.20
2022-12-14T00:57:17.023Z,15.22
2022-12-14T00:58:17.044Z,15.19
2022-12-14T00:59:17.070Z,15.28
2022-12-14T01:00:17.354Z,15.23
2022-12-14T01:01:17.279Z,15.20
2022-12-14T01:02:17.353Z,15.23
2022-12-14T01:03:17.264Z,15.19
2022-12-14T01:04:17.333Z,15.25
2022-12-14T01:05:17.216Z,15.23
2022-12-14T01:06:17.605Z,15.19
2022-12-14T01:07:17.284Z,15.15
2022-12-14T01:08:17.288Z,15.28
2022-12-14T01:09:17.309Z,15.20
2022-12-14T01:10:17.331Z,15.23
2022-12-14T01:11:17.358Z,15.20
2022-12-14T01:12:17.680Z,15.19
2022-12-14T01:13:17.502Z,15.23
2022-12-14T01:14:17.427Z,15.16
2022-12-14T01:15:17.454Z,15.18
2022-12-14T01:16:17.591Z,15.13
2022-12-14T01:18:17.830Z,15.12
2022-12-14T01:19:17.547Z,15.16
2022-12-14T01:20:17.571Z,15.12
2022-12-14T01:21:17.594Z,15.15
2022-12-14T01:22:17.617Z,15.15
2022-12-14T01:23:17.666Z,15.19
2022-12-14T01:24:17.769Z,15.19
2022-12-14T01:25:17.999Z,15.20
2022-12-14T01:26:17.715Z,15.16
2022-12-14T01:27:17.733Z,15.13
2022-12-14T01:28:17.755Z,15.15
2022-12-14T01:29:17.799Z,15.18
2022-12-14T01:30:17.803Z,15.15
2022-12-14T01:31:17.942Z,15.11
2022-12-14T01:32:18.102Z,15.16
2022-12-14T01:33:17.882Z,15.12
2022-12-14T01:34:17.918Z,15.13
2022-12-14T01:35:17.977Z,15.04
2022-12-14T01:36:17.951Z,15.19
2022-12-14T01:37:17.970Z,15.05
2022-12-14T01:38:17.996Z,15.18
2022-12-14T01:39:18.088Z,15.05
2022-12-14T01:40:18.043Z,15.05
2022-12-14T01:41:18.065Z,15.05
2022-12-14T01:42:18.094Z,15.09
2022-12-14T01:43:18.117Z,15.11
2022-12-14T01:44:18.137Z,15.15
2022-12-14T01:45:18.158Z,15.05
2022-12-14T01:46:18.533Z,15.05
2022-12-14T01:47:18.210Z,15.13
2022-12-14T01:49:18.259Z,15.09
2022-12-14T01:50:18.282Z,15.09
2022-12-14T01:51:18.328Z,15.12
2022-12-14T01:52:18.330Z,15.04
2022-12-14T01:53:18.599Z,15.04
2022-12-14T01:54:18.390Z,15.11
2022-12-14T01:55:18.420Z,15.15
2022-12-14T01:57:18.448Z,15.11
2022-12-14T01:58:18.469Z,15.05
2022-12-14T01:59:18.494Z,15.05
2022-12-14T02:00:18.823Z,15.09
2022-12-14T02:01:18.672Z,15.07
2022-12-14T02:02:18.773Z,15.07
2022-12-14T02:03:18.650Z,15.01
2022-12-14T02:04:18.616Z,15.04
2022-12-14T02:05:18.641Z,15.03
2022-12-14T02:06:18.665Z,15.07
2022-12-14T02:07:18.988Z,14.95
2022-12-14T02:08:18.718Z,15.03
2022-12-14T02:09:18.736Z,15.07
2022-12-14T02:10:18.758Z,15.01
2022-12-14T02:11:18.805Z,15.05
2022-12-14T02:12:18.803Z,15.01
2022-12-14T02:13:18.843Z,14.93
2022-12-14T02:14:19.107Z,14.95
2022-12-14T02:15:18.886Z,14.97
2022-12-14T02:16:18.951Z,15.01
2022-12-14T02:17:18.930Z,15.01
2022-12-14T02:18:18.957Z,15.07
2022-12-14T02:19:18.971Z,14.91
2022-12-14T02:22:19.342Z,14.87
2022-12-14T02:23:19.068Z,14.97
2022-12-14T02:24:19.094Z,14.91
2022-12-14T02:25:19.115Z,15.00
2022-12-14T02:26:19.139Z,14.95
2022-12-14T02:28:19.208Z,14.93
2022-12-14T02:29:19.203Z,14.93
2022-12-14T02:30:19.234Z,14.95
2022-12-14T02:32:19.284Z,14.91
2022-12-14T02:34:19.630Z,14.93
2022-12-14T02:36:19.386Z,14.98
2022-12-14T02:37:19.397Z,14.93
2022-12-14T02:38:19.418Z,14.94
2022-12-14T02:39:19.452Z,14.82
2022-12-14T02:40:19.869Z,14.98
2022-12-14T02:41:27.560Z,14.91
2022-12-14T02:42:19.519Z,14.82
2022-12-14T02:43:19.548Z,14.85
2022-12-14T02:44:19.589Z,14.86
2022-12-14T02:46:19.737Z,14.85
2022-12-14T02:47:19.636Z,14.83
2022-12-14T02:48:19.677Z,14.83
2022-12-14T02:49:19.683Z,14.93
2022-12-14T02:50:19.705Z,14.80
2022-12-14T02:51:19.734Z,14.83
2022-12-14T02:52:20.060Z,14.93
2022-12-14T02:53:19.828Z,14.79
2022-12-14T02:54:19.806Z,14.82
2022-12-14T02:55:19.823Z,14.79
2022-12-14T02:56:19.849Z,14.82
2022-12-14T02:57:19.868Z,14.80
2022-12-14T02:58:19.893Z,14.85
2022-12-14T02:59:19.924Z,14.80
2022-12-14T03:00:19.972Z,14.82
2022-12-14T03:01:20.053Z,14.78
2022-12-14T03:02:20.081Z,14.82
2022-12-14T03:03:20.015Z,14.79
2022-12-14T03:04:20.039Z,14.78
2022-12-14T03:05:20.067Z,14.74
2022-12-14T03:06:20.386Z,14.80
2022-12-14T03:07:20.218Z,14.80
2022-12-14T03:08:20.131Z,14.71
2022-12-14T03:09:20.153Z,14.78
2022-12-14T03:10:20.202Z,14.85
2022-12-14T03:11:20.208Z,14.75
2022-12-14T03:12:20.225Z,14.86
2022-12-14T03:13:20.500Z,14.72
2022-12-14T03:14:20.281Z,14.75
2022-12-14T03:15:20.299Z,14.71
2022-12-14T03:16:20.569Z,14.64
2022-12-14T03:17:20.342Z,14.74
2022-12-14T03:18:20.364Z,14.80
2022-12-14T03:19:20.396Z,14.74
2022-12-14T03:20:20.672Z,14.71
2022-12-14T03:21:20.438Z,14.82
2022-12-14T03:22:20.464Z,14.79
2022-12-14T03:23:20.485Z,14.80
2022-12-14T03:24:20.516Z,14.79
2022-12-14T03:25:20.542Z,14.78
2022-12-14T03:26:20.562Z,14.80
2022-12-14T03:27:20.878Z,14.79
2022-12-14T03:29:20.728Z,14.72
2022-12-14T03:30:43.897Z,14.80
2022-12-14T03:31:20.731Z,14.82
2022-12-14T03:32:20.719Z,14.79
2022-12-14T03:33:20.727Z,14.79
2022-12-14T03:34:21.056Z,14.82
2022-12-14T03:35:20.775Z,14.82
2022-12-14T03:36:20.794Z,14.80
2022-12-14T03:38:20.940Z,14.72
2022-12-14T03:39:20.861Z,14.86
2022-12-14T03:40:20.892Z,14.83
2022-12-14T03:41:21.207Z,14.69
2022-12-14T03:42:20.936Z,14.85
2022-12-14T03:43:20.962Z,14.79
2022-12-14T03:44:20.984Z,14.75
2022-12-14T03:45:21.007Z,14.75
2022-12-14T03:46:21.039Z,14.78
2022-12-14T03:47:21.067Z,14.75
2022-12-14T03:48:21.100Z,14.72
2022-12-14T03:49:21.151Z,14.75
2022-12-14T03:50:21.123Z,14.71
2022-12-14T03:51:21.159Z,14.69
2022-12-14T03:52:21.173Z,14.78
2022-12-14T03:53:21.192Z,14.72
2022-12-14T03:54:21.523Z,14.69
2022-12-14T03:55:21.237Z,14.79
2022-12-14T03:56:21.265Z,14.72
2022-12-14T03:57:21.291Z,14.72
2022-12-14T03:58:21.313Z,14.75
2022-12-14T03:59:21.347Z,14.78
2022-12-14T04:00:21.360Z,14.75
2022-12-14T04:01:21.814Z,14.75
2022-12-14T04:02:21.608Z,14.78
2022-12-14T04:03:21.491Z,14.69
2022-12-14T04:04:21.475Z,14.72
2022-12-14T04:05:21.480Z,14.71
2022-12-14T04:06:21.508Z,14.69
2022-12-14T04:07:21.526Z,14.74
2022-12-14T04:08:21.861Z,14.74
2022-12-14T04:09:21.573Z,14.71
2022-12-14T04:10:21.597Z,14.69
2022-12-14T04:11:21.618Z,14.74
2022-12-14T04:12:21.742Z,14.74
2022-12-14T04:13:21.669Z,14.74
2022-12-14T04:14:21.940Z,14.69
2022-12-14T04:15:21.712Z,14.71
2022-12-14T04:16:21.818Z,14.66
2022-12-14T04:17:21.760Z,14.66
2022-12-14T04:18:21.785Z,14.61
2022-12-14T04:19:21.808Z,14.66
2022-12-14T04:20:22.152Z,14.64
2022-12-14T04:21:21.853Z,14.61
2022-12-14T04:23:21.903Z,14.71
2022-12-14T04:25:21.947Z,14.67
2022-12-14T04:26:21.970Z,14.61
2022-12-14T04:27:22.296Z,14.64
2022-12-14T04:28:22.122Z,14.69
2022-12-14T04:29:22.045Z,14.66
2022-12-14T04:30:22.076Z,14.71
2022-12-14T04:31:22.121Z,14.60
2022-12-14T04:32:22.183Z,14.60
2022-12-14T04:33:22.501Z,14.67
2022-12-14T04:34:22.166Z,14.66
2022-12-14T04:35:22.187Z,14.64
2022-12-14T04:36:22.235Z,14.56
2022-12-14T04:37:22.228Z,14.64
2022-12-14T04:38:22.354Z,14.61
2022-12-14T04:39:22.285Z,14.64
2022-12-14T04:40:22.612Z,14.56
2022-12-14T04:41:22.323Z,14.57
2022-12-14T04:42:22.348Z,14.61
2022-12-14T04:43:22.375Z,14.61
2022-12-14T04:44:22.399Z,14.60
2022-12-14T04:45:22.421Z,14.57
2022-12-14T04:46:22.508Z,14.60
2022-12-14T04:47:22.716Z,14.61
2022-12-14T04:48:22.495Z,14.56
2022-12-14T04:49:22.522Z,14.63
2022-12-14T04:50:22.538Z,14.59
2022-12-14T04:51:22.562Z,14.57
2022-12-14T04:52:22.609Z,14.57
2022-12-14T04:53:22.605Z,14.56
2022-12-14T04:54:22.642Z,14.56
2022-12-14T04:55:22.656Z,14.63
2022-12-14T04:56:22.782Z,14.66
2022-12-14T04:57:22.704Z,14.61
2022-12-14T04:59:23.055Z,14.53
2022-12-14T05:00:22.784Z,14.54
2022-12-14T05:01:22.946Z,14.63
2022-12-14T05:02:22.969Z,14.59
2022-12-14T05:03:22.847Z,14.57
2022-12-14T05:04:22.875Z,14.60
2022-12-14T05:05:22.892Z,14.53
2022-12-14T05:06:22.918Z,14.53
2022-12-14T05:07:22.940Z,14.54
2022-12-14T05:08:23.035Z,14.59
2022-12-14T05:09:22.989Z,14.56
2022-12-14T05:10:23.016Z,14.56
2022-12-14T05:11:51.871Z,14.52
2022-12-14T05:12:23.084Z,14.54
2022-12-14T05:13:23.080Z,14.53
2022-12-14T05:14:23.106Z,14.52
2022-12-14T05:15:23.131Z,14.57
2022-12-14T05:16:23.184Z,14.54
2022-12-14T05:17:23.175Z,14.59
2022-12-14T05:18:23.447Z,14.53
2022-12-14T05:19:23.227Z,14.57
2022-12-14T05:20:23.248Z,14.59
2022-12-14T05:21:23.273Z,14.53
2022-12-14T05:22:23.293Z,14.52
2022-12-14T05:23:23.326Z,14.60
2022-12-14T05:24:23.355Z,14.56
2022-12-14T05:25:23.364Z,14.54
2022-12-14T05:26:23.382Z,14.53
2022-12-14T05:27:23.513Z,14.60
2022-12-14T05:28:23.436Z,14.52
2022-12-14T05:29:23.457Z,14.54
2022-12-14T05:30:23.833Z,14.53
2022-12-14T05:31:23.506Z,14.60
2022-12-14T05:32:23.543Z,14.46
2022-12-14T05:33:23.556Z,14.59
2022-12-14T05:34:23.574Z,14.57
2022-12-14T05:35:23.616Z,14.60
2022-12-14T05:36:23.625Z,14.52
2022-12-14T05:37:23.950Z,14.53
2022-12-14T05:38:23.670Z,14.45
2022-12-14T05:39:23.699Z,14.48
2022-12-14T05:40:23.734Z,14.46
2022-12-14T05:41:23.748Z,14.54
2022-12-14T05:42:23.759Z,14.53
2022-12-14T05:43:23.785Z,14.52
2022-12-14T05:44:23.818Z,14.42
2022-12-14T05:45:23.837Z,14.56
2022-12-14T05:46:23.922Z,14.53
2022-12-14T05:47:23.880Z,14.53
2022-12-14T05:48:23.904Z,14.60
2022-12-14T05:49:23.926Z,14.57
2022-12-14T05:50:24.201Z,14.56
2022-12-14T05:51:23.971Z,14.53
2022-12-14T05:52:24.000Z,14.56
2022-12-14T05:53:24.214Z,14.54
2022-12-14T05:54:24.046Z,14.54
2022-12-14T05:55:24.074Z,14.52
2022-12-14T05:56:24.117Z,14.56
2022-12-14T05:57:24.420Z,14.59
2022-12-14T05:58:24.146Z,14.52
2022-12-14T05:59:24.232Z,14.59
2022-12-14T06:00:24.290Z,14.56
2022-12-14T06:01:24.324Z,14.60
2022-12-14T06:02:24.352Z,14.60
2022-12-14T06:03:24.628Z,14.57
2022-12-14T06:04:24.637Z,14.60
2022-12-14T06:05:24.300Z,14.60
2022-12-14T06:06:24.331Z,14.61
2022-12-14T06:07:27.810Z,14.61
2022-12-14T06:08:24.380Z,14.63
2022-12-14T06:09:24.396Z,14.63
2022-12-14T06:10:24.419Z,14.59
2022-12-14T06:11:24.748Z,14.60
2022-12-14T06:12:24.487Z,14.57
2022-12-14T06:13:24.759Z,14.61
2022-12-14T06:14:24.515Z,14.63
2022-12-14T06:15:27.231Z,14.59
2022-12-14T06:16:24.658Z,14.61
2022-12-14T06:17:24.636Z,14.56
2022-12-14T06:18:24.913Z,14.57
2022-12-14T06:19:24.640Z,14.63
2022-12-14T06:20:24.657Z,14.61
2022-12-14T06:21:24.680Z,14.63
2022-12-14T06:22:24.717Z,14.61
2022-12-14T06:23:25.218Z,14.66
2022-12-14T06:24:24.753Z,14.61
2022-12-14T06:25:24.774Z,14.61
2022-12-14T06:26:24.806Z,14.57
2022-12-14T06:27:24.821Z,14.59
2022-12-14T06:28:24.861Z,14.61
2022-12-14T06:29:24.867Z,14.60
2022-12-14T06:30:25.145Z,14.59
2022-12-14T06:31:25.298Z,14.60
2022-12-14T06:32:24.941Z,14.59
2022-12-14T06:33:25.337Z,14.61
2022-12-14T06:34:28.678Z,14.61
2022-12-14T06:35:25.008Z,14.63
2022-12-14T06:36:25.035Z,14.67
2022-12-14T06:37:25.082Z,14.67
2022-12-14T06:38:25.081Z,14.67
2022-12-14T06:39:25.100Z,14.63
2022-12-14T06:40:25.130Z,14.61
2022-12-14T06:41:25.155Z,14.71
2022-12-14T06:42:25.477Z,14.64
2022-12-14T06:43:25.813Z,14.63
2022-12-14T06:44:25.239Z,14.63
2022-12-14T06:45:25.247Z,14.66
2022-12-14T06:46:25.331Z,14.61
2022-12-14T06:47:25.293Z,14.71
2022-12-14T06:48:25.313Z,14.71
2022-12-14T06:50:25.664Z,14.64
2022-12-14T06:51:25.405Z,14.63
2022-12-14T06:52:27.122Z,14.66
2022-12-14T06:53:25.819Z,14.60
2022-12-14T06:54:25.505Z,14.63
2022-12-14T06:55:25.479Z,14.66
2022-12-14T06:56:25.507Z,14.71
2022-12-14T06:57:25.531Z,14.69
2022-12-14T06:58:30.944Z,14.63
2022-12-14T06:59:25.578Z,14.71
2022-12-14T07:00:26.188Z,14.63
2022-12-14T07:01:25.880Z,14.69
2022-12-14T07:02:25.900Z,14.61
2022-12-14T07:03:26.454Z,14.71
2022-12-14T07:04:25.689Z,14.61
2022-12-14T07:05:25.717Z,14.63
2022-12-14T07:06:25.737Z,14.67
2022-12-14T07:07:25.768Z,14.67
2022-12-14T07:08:25.792Z,14.64
2022-12-14T07:09:25.813Z,14.69
2022-12-14T07:10:26.084Z,14.67
2022-12-14T07:11:25.862Z,14.66
2022-12-14T07:12:25.934Z,14.75
2022-12-14T07:13:26.362Z,14.69
2022-12-14T07:14:26.029Z,14.72
2022-12-14T07:15:25.963Z,14.80
2022-12-14T07:16:26.071Z,14.74
2022-12-14T07:17:26.024Z,14.74
2022-12-14T07:18:26.021Z,14.82
2022-12-14T07:19:26.299Z,14.83
2022-12-14T07:20:26.069Z,14.86
2022-12-14T07:21:26.090Z,14.83
2022-12-14T07:22:26.114Z,14.83
2022-12-14T07:23:28.262Z,14.74
2022-12-14T07:24:26.197Z,14.69
2022-12-14T07:25:26.191Z,14.87
2022-12-14T07:26:26.210Z,14.74
2022-12-14T07:27:26.262Z,14.74
2022-12-14T07:28:26.257Z,14.80
2022-12-14T07:29:29.653Z,14.75
2022-12-14T07:30:26.308Z,14.80
2022-12-14T07:31:26.493Z,14.83
2022-12-14T07:32:26.375Z,14.82
2022-12-14T07:33:26.682Z,14.83
2022-12-14T07:34:26.405Z,14.83
2022-12-14T07:35:26.450Z,14.80
2022-12-14T07:37:26.478Z,14.80
2022-12-14T07:38:26.501Z,14.78
2022-12-14T07:39:26.527Z,14.79
2022-12-14T07:40:26.546Z,14.79
2022-12-14T07:41:26.867Z,14.78
2022-12-14T07:42:26.587Z,14.79
2022-12-14T07:43:27.024Z,14.83
2022-12-14T07:44:26.638Z,14.82
2022-12-14T07:45:26.696Z,14.74
2022-12-14T07:46:26.739Z,14.83
2022-12-14T07:47:26.817Z,14.83
2022-12-14T07:48:26.799Z,14.79
2022-12-14T07:49:26.757Z,14.85
2022-12-14T07:50:26.776Z,14.86
2022-12-14T07:51:26.856Z,14.79
2022-12-14T07:52:26.871Z,14.86
2022-12-14T07:53:27.334Z,14.85
2022-12-14T07:54:27.273Z,14.83
2022-12-14T07:55:26.960Z,14.82
2022-12-14T07:56:26.920Z,14.80
2022-12-14T07:57:26.939Z,14.82
2022-12-14T07:58:26.980Z,14.82
2022-12-14T07:59:27.066Z,14.83
2022-12-14T08:00:27.064Z,14.83
2022-12-14T08:01:27.692Z,14.85
2022-12-14T08:02:27.148Z,14.83
2022-12-14T08:03:27.527Z,14.78
2022-12-14T08:04:27.174Z,14.82
2022-12-14T08:05:27.130Z,14.83
2022-12-14T08:06:27.153Z,14.80
2022-12-14T08:07:27.181Z,14.82
2022-12-14T08:08:27.203Z,14.82
2022-12-14T08:09:27.228Z,14.82
2022-12-14T08:10:27.257Z,14.85
2022-12-14T08:11:27.283Z,14.80
2022-12-14T08:12:27.304Z,14.83
2022-12-14T08:13:27.785Z,14.86
2022-12-14T08:14:27.646Z,14.93
2022-12-14T08:15:27.425Z,14.83
2022-12-14T08:16:27.828Z,14.85
2022-12-14T08:17:27.423Z,14.90
2022-12-14T08:18:27.440Z,14.82
2022-12-14T08:19:27.461Z,14.85
2022-12-14T08:20:27.503Z,14.87
2022-12-14T08:21:27.815Z,14.87
2022-12-14T08:22:27.544Z,14.91
2022-12-14T08:23:27.948Z,14.93
2022-12-14T08:24:27.578Z,14.93
2022-12-14T08:26:34.954Z,14.95
2022-12-14T08:27:27.952Z,14.90
2022-12-14T08:28:30.003Z,14.94
2022-12-14T08:29:27.700Z,14.94
2022-12-14T08:30:27.725Z,14.94
2022-12-14T08:31:27.821Z,14.91
2022-12-14T08:32:33.960Z,14.85
2022-12-14T08:33:28.562Z,14.91
2022-12-14T08:34:27.816Z,14.93
2022-12-14T08:35:27.951Z,14.97
2022-12-14T08:36:27.890Z,14.98
2022-12-14T08:37:27.889Z,14.90
2022-12-14T08:38:28.138Z,14.91
2022-12-14T08:39:28.233Z,14.95
2022-12-14T08:40:27.957Z,14.93
2022-12-14T08:41:28.086Z,14.97
2022-12-14T08:42:28.006Z,14.87
2022-12-14T08:43:28.299Z,14.95
2022-12-14T08:44:28.055Z,14.90
2022-12-14T08:45:28.075Z,14.85
2022-12-14T08:46:28.477Z,14.93
2022-12-14T08:47:28.122Z,15.00
2022-12-14T08:48:28.161Z,14.90
2022-12-14T08:49:32.217Z,14.98
2022-12-14T08:50:28.197Z,14.91
2022-12-14T08:51:28.221Z,14.91
2022-12-14T08:52:28.281Z,14.97
2022-12-14T08:53:28.856Z,14.98
2022-12-14T08:54:28.304Z,14.95
2022-12-14T08:55:32.503Z,14.91
2022-12-14T08:56:28.350Z,14.93
2022-12-14T08:57:28.367Z,14.87
2022-12-14T08:58:28.396Z,14.91
2022-12-14T08:59:59.384Z,14.91
2022-12-14T09:00:28.430Z,15.01
2022-12-14T09:01:33.590Z,14.91
2022-12-14T09:02:28.605Z,15.00
2022-12-14T09:03:28.993Z,14.98
2022-12-14T09:04:28.565Z,14.97
2022-12-14T09:05:28.549Z,14.94
2022-12-14T09:06:28.885Z,14.98
2022-12-14T09:07:28.598Z,15.00
2022-12-14T09:09:28.640Z,14.91
2022-12-14T09:10:28.667Z,14.93
2022-12-14T09:11:28.690Z,15.03
2022-12-14T09:12:28.717Z,14.97
2022-12-14T09:13:29.778Z,15.04
2022-12-14T09:14:28.772Z,14.98
2022-12-14T09:15:28.799Z,14.97
2022-12-14T09:16:28.991Z,15.07
2022-12-14T09:17:28.848Z,15.04
2022-12-14T09:18:29.410Z,15.00
2022-12-14T09:19:28.882Z,14.95
2022-12-14T09:20:29.156Z,15.01
2022-12-14T09:21:28.929Z,15.04
2022-12-14T09:22:28.991Z,15.07
2022-12-14T09:23:29.528Z,15.00
2022-12-14T09:24:29.001Z,14.95
2022-12-14T09:26:29.297Z,14.97
2022-12-14T09:27:29.089Z,15.11
2022-12-14T09:28:29.103Z,15.03
2022-12-14T09:30:29.136Z,14.98
2022-12-14T09:31:30.343Z,15.05
2022-12-14T09:32:30.056Z,15.03
2022-12-14T09:33:30.165Z,14.97
2022-12-14T09:34:30.229Z,15.03
2022-12-14T09:35:29.711Z,15.07
2022-12-14T09:36:30.091Z,14.94
2022-12-14T09:37:29.314Z,15.01
2022-12-14T09:38:29.727Z,14.98
2022-12-14T09:39:29.528Z,14.95
2022-12-14T09:40:29.429Z,15.07
2022-12-14T09:41:29.402Z,15.09
2022-12-14T09:42:29.421Z,15.05
2022-12-14T09:43:30.265Z,14.98
2022-12-14T09:44:29.736Z,15.03
2022-12-14T09:45:29.550Z,15.04
2022-12-14T09:46:29.520Z,15.04
2022-12-14T09:48:29.945Z,15.05
2022-12-14T09:49:29.627Z,15.03
2022-12-14T09:50:29.616Z,15.05
2022-12-14T09:52:29.963Z,15.07
2022-12-14T09:53:30.273Z,15.04
2022-12-14T09:55:29.789Z,15.05
2022-12-14T09:56:29.757Z,15.04
2022-12-14T09:57:29.781Z,15.07
2022-12-14T09:58:30.582Z,15.18
2022-12-14T09:59:29.827Z,15.12
2022-12-14T10:00:29.854Z,15.12
2022-12-14T10:01:29.980Z,15.05
2022-12-14T10:02:31.297Z,15.11
2022-12-14T10:03:30.411Z,15.15
2022-12-14T10:04:30.143Z,15.13
2022-12-14T10:05:30.269Z,15.13
2022-12-14T10:06:30.033Z,15.19
2022-12-14T10:07:34.197Z,15.13
2022-12-14T10:08:30.440Z,15.13
2022-12-14T10:09:30.081Z,15.13
2022-12-14T10:10:30.091Z,15.15
2022-12-14T10:11:30.119Z,15.18
2022-12-14T10:12:34.252Z,15.12
2022-12-14T10:13:30.723Z,15.19
2022-12-14T10:14:30.187Z,15.15
2022-12-14T10:15:30.254Z,15.22
2022-12-14T10:16:30.347Z,15.19
2022-12-14T10:17:30.256Z,15.13
2022-12-14T10:19:30.309Z,15.15
2022-12-14T10:20:30.406Z,15.15
2022-12-14T10:21:30.407Z,15.16
2022-12-14T10:22:30.378Z,15.16
2022-12-14T10:23:30.398Z,15.15
2022-12-14T10:24:30.420Z,15.13
2022-12-14T10:25:30.453Z,15.13
2022-12-14T10:26:30.469Z,15.13
2022-12-14T10:27:38.114Z,15.19
2022-12-14T10:28:30.894Z,15.15
2022-12-14T10:29:30.564Z,15.12
2022-12-14T10:30:30.562Z,15.15
2022-12-14T10:31:30.638Z,15.19
2022-12-14T10:32:30.626Z,15.25
2022-12-14T10:33:30.640Z,15.19
2022-12-14T10:34:30.662Z,15.22
2022-12-14T10:35:30.683Z,15.13
2022-12-14T10:36:30.715Z,15.16
2022-12-14T10:37:31.037Z,15.22
2022-12-14T10:38:31.219Z,15.18
2022-12-14T10:39:30.785Z,15.18
2022-12-14T10:40:33.992Z,15.13
2022-12-14T10:41:30.830Z,15.23
2022-12-14T10:43:31.179Z,15.15
2022-12-14T10:44:30.896Z,15.27
2022-12-14T10:45:40.423Z,15.25
2022-12-14T10:46:31.020Z,15.25
2022-12-14T10:47:30.974Z,15.23
2022-12-14T10:49:31.427Z,15.25
2022-12-14T10:50:31.044Z,15.15
2022-12-14T10:51:31.257Z,15.23
2022-12-14T10:52:31.093Z,15.18
2022-12-14T10:53:35.697Z,15.22
2022-12-14T10:54:31.138Z,15.16
2022-12-14T10:55:31.162Z,15.22
2022-12-14T10:56:31.309Z,15.22
2022-12-14T10:57:31.229Z,15.20
2022-12-14T10:58:31.954Z,15.25
2022-12-14T10:59:38.899Z,15.25
2022-12-14T11:00:31.281Z,15.23
2022-12-14T11:01:31.440Z,15.19
2022-12-14T11:02:31.869Z,15.27
2022-12-14T11:03:31.433Z,15.23
2022-12-14T11:04:31.374Z,15.31
2022-12-14T11:05:36.450Z,15.25
2022-12-14T11:06:32.316Z,15.20
2022-12-14T11:07:31.997Z,15.23
2022-12-14T11:08:31.861Z,15.25
2022-12-14T11:09:31.812Z,15.33
2022-12-14T11:10:31.517Z,15.25
2022-12-14T11:11:31.621Z,15.35
2022-12-14T11:12:31.564Z,15.22
2022-12-14T11:13:31.590Z,15.31
2022-12-14T11:14:31.617Z,15.31
2022-12-14T11:15:31.638Z,15.31
2022-12-14T11:16:36.021Z,15.34
2022-12-14T11:17:31.867Z,15.28
2022-12-14T11:18:32.343Z,15.28
2022-12-14T11:19:31.735Z,15.33
2022-12-14T11:20:31.768Z,15.33
2022-12-14T11:21:31.785Z,15.28
2022-12-14T11:22:32.027Z,15.33
2022-12-14T11:23:31.830Z,15.31
2022-12-14T11:24:31.854Z,15.25
2022-12-14T11:25:31.881Z,15.31
2022-12-14T11:26:31.921Z,15.31
2022-12-14T11:27:31.927Z,15.25
2022-12-14T11:28:37.009Z,15.33
2022-12-14T11:29:32.229Z,15.35
2022-12-14T11:30:32.146Z,15.37
2022-12-14T11:31:32.031Z,15.31
2022-12-14T11:32:32.042Z,15.25
2022-12-14T11:33:32.087Z,15.31
2022-12-14T11:34:32.120Z,15.31
2022-12-14T11:35:32.416Z,15.31
2022-12-14T11:36:32.141Z,15.25
2022-12-14T11:37:32.163Z,15.33
2022-12-14T11:38:32.743Z,15.31
2022-12-14T11:39:32.218Z,15.35
2022-12-14T11:40:32.237Z,15.33
2022-12-14T11:41:32.513Z,15.43
2022-12-14T11:42:32.290Z,15.38
2022-12-14T11:43:32.316Z,15.38
2022-12-14T11:44:32.335Z,15.37
2022-12-14T11:45:32.359Z,15.30
2022-12-14T11:47:32.673Z,15.37
2022-12-14T11:48:33.118Z,15.34
2022-12-14T11:49:32.446Z,15.35
2022-12-14T11:51:32.512Z,15.34
2022-12-14T11:52:32.530Z,15.33
2022-12-14T11:53:32.553Z,15.38
2022-12-14T11:54:32.823Z,15.40
2022-12-14T11:55:32.618Z,15.38
2022-12-14T11:57:32.645Z,15.40
2022-12-14T11:58:33.092Z,15.40
2022-12-14T11:59:32.692Z,15.38
2022-12-14T12:00:32.718Z,15.40
2022-12-14T12:01:33.097Z,15.38
2022-12-14T12:02:32.874Z,15.37
2022-12-14T12:03:32.857Z,15.37
2022-12-14T12:04:32.809Z,15.44
2022-12-14T12:05:32.845Z,15.44
2022-12-14T12:06:32.914Z,15.48
2022-12-14T12:07:32.939Z,15.38
2022-12-14T12:08:33.820Z,15.40
2022-12-14T12:09:33.016Z,15.37
2022-12-14T12:10:32.993Z,15.40
2022-12-14T12:11:33.054Z,15.40
2022-12-14T12:12:33.025Z,15.35
2022-12-14T12:13:33.033Z,15.44
2022-12-14T12:14:33.084Z,15.52
2022-12-14T12:15:33.359Z,15.38
2022-12-14T12:16:33.379Z,15.49
2022-12-14T12:17:33.254Z,15.48
2022-12-14T12:18:33.749Z,15.40
2022-12-14T12:19:33.276Z,15.33
2022-12-14T12:20:33.383Z,15.37
2022-12-14T12:21:33.223Z,15.38
2022-12-14T12:22:33.541Z,15.46
2022-12-14T12:23:33.557Z,15.49
2022-12-14T12:24:33.298Z,15.41
2022-12-14T12:25:37.228Z,15.49
2022-12-14T12:26:33.393Z,15.46
2022-12-14T12:27:33.365Z,15.43
2022-12-14T12:28:33.843Z,15.44
2022-12-14T12:29:33.666Z,15.46
2022-12-14T12:30:33.439Z,15.43
2022-12-14T12:31:33.594Z,15.46
2022-12-14T12:32:33.482Z,15.48
2022-12-14T12:33:33.515Z,15.49
2022-12-14T12:34:33.541Z,15.51
2022-12-14T12:35:33.712Z,15.49
2022-12-14T12:36:33.886Z,15.51
2022-12-14T12:37:33.601Z,15.49
2022-12-14T12:38:33.634Z,15.49
2022-12-14T12:39:33.656Z,15.49
2022-12-14T12:40:33.678Z,15.44
2022-12-14T12:41:33.701Z,15.48
2022-12-14T12:42:33.727Z,15.48
2022-12-14T12:43:34.011Z,15.55
2022-12-14T12:44:33.787Z,15.58
2022-12-14T12:45:33.833Z,15.64
2022-12-14T12:47:46.076Z,15.55
2022-12-14T12:48:34.137Z,15.58
2022-12-14T12:49:33.921Z,15.55
2022-12-14T12:50:34.267Z,15.56
2022-12-14T12:51:33.946Z,15.56
2022-12-14T12:52:33.963Z,15.60
2022-12-14T12:53:33.999Z,15.62
2022-12-14T12:54:34.013Z,15.60
2022-12-14T12:55:34.041Z,15.60
2022-12-14T12:56:34.167Z,15.64
2022-12-14T12:57:34.399Z,15.58
2022-12-14T12:58:34.682Z,15.56
2022-12-14T12:59:34.135Z,15.64
2022-12-14T13:00:34.158Z,15.56
2022-12-14T13:01:34.287Z,15.59
2022-12-14T13:02:34.441Z,15.52
2022-12-14T13:03:34.325Z,15.58
2022-12-14T13:04:34.267Z,15.58
2022-12-14T13:05:49.585Z,15.56
2022-12-14T13:06:34.322Z,15.58
2022-12-14T13:07:34.343Z,15.58
2022-12-14T13:08:34.757Z,15.60
2022-12-14T13:09:34.383Z,15.66
2022-12-14T13:10:34.414Z,15.70
2022-12-14T13:11:34.434Z,15.67
2022-12-14T13:12:34.474Z,15.62
2022-12-14T13:13:34.482Z,15.62
2022-12-14T13:14:34.603Z,15.66
2022-12-14T13:15:34.585Z,15.67
2022-12-14T13:16:34.915Z,15.66
2022-12-14T13:17:34.770Z,15.68
2022-12-14T13:18:57.627Z,15.60
2022-12-14T13:19:50.620Z,15.60
2022-12-14T13:20:34.651Z,15.64
2022-12-14T13:21:34.682Z,15.64
2022-12-14T13:22:35.093Z,15.64
2022-12-14T13:23:44.736Z,15.58
2022-12-14T13:24:34.895Z,15.66